Latest Weather Observations for Ballina

IDN60801

Issued at 11:02 am EDT Thursday 23 February 2017 (issued every 30 minutes, with the page automatically refreshed every 10 minutes)

About weather observations | Map of weather stations | Latest weather observations for NSW | Other Formats
Station Details ID: 058198 Name: BALLINA AIRPORT AWS Lat: -28.84 Lon: 153.56 Height: 1.3 m
Data from the previous 72 hours. | See also: Recent months at Ballina
Date/Time
EDT
Temp
°C
App
Temp
°C
Dew
Point
°C
Rel
Hum
%
Delta-T
°C
Wind Press
QNH
hPa
Press
MSL
hPa
Rain since
9am
mm
Dir  Spd
km/h
Gust
km/h
Spd
kts
Gust
kts
23/11:00am 26.5 23.9 14.9 49 7.0 SSE 22 30 12 16 1020.5 1020.5 0.0
23/10:30am 26.8 25.2 14.9 48 7.2 SSE 17 26 9 14 1020.7 1020.7 0.0
23/10:00am 26.2 23.6 13.7 46 7.4 S 20 30 11 16 1020.7 1020.7 0.0
23/09:30am 25.9 23.8 14.7 50 6.7 SSE 19 26 10 14 1020.5 1020.5 0.0
23/09:00am 25.7 24.2 14.2 49 6.8 SSE 15 20 8 11 1020.4 1020.4 0.0
23/08:30am 23.9 23.9 16.2 62 4.7 WSW 11 15 6 8 1020.3 1020.3 0.0
23/08:00am 22.3 21.9 16.1 68 3.7 WSW 13 17 7 9 1020.2 1020.2 0.0
23/07:30am 20.1 20.0 16.1 78 2.4 W 11 15 6 8 1020.0 1020.0 0.0
23/07:00am 17.7 18.2 15.0 84 1.6 WNW 6 9 3 5 1019.7 1019.7 0.0
23/06:30am 18.3 18.5 14.8 80 2.0 W 7 11 4 6 1019.3 1019.3 0.0
23/06:00am 21.3 21.3 14.2 64 4.1 SSE 7 11 4 6 1019.1 1019.1 0.0
23/05:30am 21.4 20.1 13.6 61 4.5 SSE 13 17 7 9 1019.0 1019.0 0.0
23/05:00am 22.0 20.2 13.4 58 4.9 SE 15 22 8 12 1018.8 1018.8 0.0
23/04:30am 22.1 21.0 14.2 61 4.6 SE 13 19 7 10 1018.8 1018.8 0.0
23/04:00am 22.8 21.2 15.1 62 4.6 SE 17 22 9 12 1018.9 1018.9 0.0
23/03:30am 22.3 21.4 14.9 63 4.4 SE 13 17 7 9 1019.1 1019.1 0.0
23/03:00am 22.9 22.1 15.0 61 4.7 SE 13 20 7 11 1019.2 1019.2 0.0
23/02:30am 23.6 23.5 15.9 62 4.7 SE 11 19 6 10 1019.4 1019.4 0.0
23/02:00am 23.5 22.1 16.5 65 4.3 SE 19 26 10 14 1019.6 1019.6 0.0
23/01:30am 23.3 23.4 15.4 61 4.7 SE 9 13 5 7 1019.8 1019.8 0.0
23/01:00am 22.8 22.6 15.6 64 4.3 ESE 11 15 6 8 1020.0 1020.0 0.0
23/12:30am 22.9 22.3 14.7 60 4.8 SE 11 17 6 9 1020.4 1020.4 0.0
23/12:00am 24.0 22.4 15.0 57 5.4 SE 17 26 9 14 1020.5 1020.5 0.0
 
Date/Time
EDT
Temp
°C
App
Temp
°C
Dew
Point
°C
Rel
Hum
%
Delta-T
°C
Wind Press
QNH
hPa
Press
MSL
hPa
Rain since
9am
mm
Dir  Spd
km/h
Gust
km/h
Spd
kts
Gust
kts
22/11:30pm 23.9 23.1 15.1 58 5.3 SE 13 20 7 11 1020.7 1020.7 0.0
22/11:00pm 23.9 22.9 15.7 60 4.9 SE 15 24 8 13 1020.6 1020.6 0.0
22/10:30pm 23.8 23.4 16.1 62 4.7 SE 13 19 7 10 1020.7 1020.7 0.0
22/10:00pm 23.1 22.7 16.2 65 4.2 ESE 13 17 7 9 1020.8 1020.8 0.0
22/09:30pm 23.4 22.6 16.0 63 4.5 ESE 15 19 8 10 1020.7 1020.7 0.0
22/09:00pm 23.6 23.2 16.1 62 4.5 SE 13 17 7 9 1020.4 1020.4 0.0
22/08:30pm 23.6 22.8 16.1 62 4.6 SE 15 19 8 10 1020.2 1020.2 0.0
22/08:00pm 23.6 22.9 16.4 64 4.4 ESE 15 20 8 11 1019.8 1019.8 0.0
22/07:30pm 23.9 22.8 16.4 63 4.6 SE 17 24 9 13 1019.6 1019.6 0.0
22/07:00pm 24.6 23.2 15.5 57 5.5 SE 17 24 9 13 1019.4 1019.4 0.0
22/06:30pm 25.4 23.3 14.8 52 6.3 SE 19 30 10 16 1019.4 1019.4 0.0
22/06:00pm 26.1 24.0 15.2 51 6.6 SE 20 30 11 16 1019.2 1019.2 0.0
22/05:30pm 26.8 24.9 15.8 51 6.7 SE 20 32 11 17 1019.1 1019.1 0.0
22/05:00pm 27.2 24.7 15.2 47 7.3 SE 22 32 12 17 1019.1 1019.1 0.0
22/04:30pm 27.3 24.4 15.0 47 7.4 SE 24 35 13 19 1019.1 1019.1 0.0
22/04:00pm 28.6 26.9 16.2 47 7.7 SE 20 32 11 17 1019.2 1019.2 0.0
22/03:30pm 27.2 25.0 15.9 50 6.9 SE 22 33 12 18 1019.4 1019.4 0.0
22/03:00pm 27.6 25.1 16.2 49 7.0 SE 24 35 13 19 1019.6 1019.6 0.0
22/02:30pm 27.5 25.4 16.1 49 7.0 SSE 22 33 12 18 1019.8 1019.8 0.0
22/02:00pm 27.5 24.5 14.8 45 7.6 SE 24 35 13 19 1020.1 1020.1 0.0
22/01:30pm 28.3 25.7 14.9 44 8.1 SSE 22 33 12 18 1020.3 1020.3 0.0
22/01:00pm 28.5 27.3 17.4 51 7.0 SE 20 28 11 15 1020.5 1020.5 0.0
22/12:30pm 27.8 26.2 16.1 49 7.2 SE 19 28 10 15 1020.7 1020.7 0.0
22/12:00pm 26.8 25.0 16.1 52 6.6 SE 20 30 11 16 1020.9 1020.9 0.0
22/11:30am 26.6 24.9 16.2 52 6.4 SE 20 35 11 19 1021.1 1021.1 0.0
22/11:00am 27.9 26.3 16.5 50 7.1 SE 20 28 11 15 1021.3 1021.3 0.0
22/10:30am 26.4 24.7 15.8 52 6.5 SE 19 24 10 13 1021.3 1021.3 0.0
22/10:00am 27.3 25.6 16.3 51 6.8 SE 20 26 11 14 1021.4 1021.4 0.0
22/09:30am 26.5 25.0 16.4 53 6.2 SE 19 28 10 15 1021.3 1021.3 0.0
22/09:00am 25.8 24.6 16.1 55 5.9 ESE 17 24 9 13 1021.1 1021.1 0.0
22/08:30am 25.3 24.2 16.4 57 5.5 SE 17 26 9 14 1021.0 1021.0 0.0
22/08:00am 24.8 24.5 17.3 63 4.6 SE 15 22 8 12 1020.8 1020.8 0.0
22/07:30am 24.1 24.1 17.1 65 4.3 SE 13 19 7 10 1020.4 1020.4 0.0
22/07:00am 23.6 23.4 16.6 65 4.3 SE 13 17 7 9 1020.1 1020.1 0.0
22/06:30am 23.2 24.0 17.2 69 3.7 SE 9 13 5 7 1019.8 1019.8 0.0
22/06:00am 23.2 23.4 16.7 67 4.0 SE 11 15 6 8 1019.6 1019.6 0.0
22/05:30am 23.4 23.4 17.2 68 3.8 SE 13 19 7 10 1019.1 1019.1 0.0
22/05:00am 23.1 23.4 16.9 68 3.8 SE 11 15 6 8 1019.0 1019.0 0.0
22/04:30am 23.6 24.2 17.6 69 3.7 SE 11 17 6 9 1018.8 1018.8 0.0
22/04:00am 23.3 24.3 17.7 71 3.5 ESE 9 15 5 8 1018.6 1018.6 0.0
22/03:30am 23.8 24.8 17.8 69 3.7 ESE 9 20 5 11 1018.6 1018.6 0.0
22/03:00am 23.5 24.5 17.7 70 3.6 ESE 9 13 5 7 1018.6 1018.6 0.0
22/02:30am 23.9 24.2 17.9 69 3.8 ESE 13 17 7 9 1018.7 1018.7 0.0
22/02:00am 24.1 24.7 17.8 68 3.9 ESE 11 17 6 9 1018.9 1018.9 0.0
22/01:30am 23.8 24.5 18.0 70 3.6 ESE 11 15 6 8 1019.0 1019.0 0.0
22/01:00am 23.9 24.8 18.5 72 3.4 ESE 11 17 6 9 1019.2 1019.2 0.0
22/12:30am 22.9 24.3 17.8 73 3.2 ESE 7 11 4 6 1019.6 1019.6 0.0
22/12:00am 23.0 24.1 17.0 69 3.7 E 7 9 4 5 1020.0 1020.0 0.0
 
Date/Time
EDT
Temp
°C
App
Temp
°C
Dew
Point
°C
Rel
Hum
%
Delta-T
°C
Wind Press
QNH
hPa
Press
MSL
hPa
Rain since
9am
mm
Dir  Spd
km/h
Gust
km/h
Spd
kts
Gust
kts
21/11:30pm 23.6 24.3 17.1 67 4.0 ESE 9 13 5 7 1020.2 1020.2 0.0
21/11:00pm 23.6 23.9 17.1 67 4.0 ESE 11 15 6 8 1020.2 1020.2 0.0
21/10:30pm 24.0 24.2 16.8 64 4.4 ESE 11 17 6 9 1020.3 1020.3 0.0
21/10:00pm 24.2 24.0 16.7 63 4.6 ESE 13 20 7 11 1020.1 1020.1 0.0
21/09:30pm 24.4 24.0 16.1 60 5.1 ESE 13 19 7 10 1020.2 1020.2 0.0
21/09:00pm 24.5 23.8 16.5 61 4.9 ESE 15 22 8 12 1020.0 1020.0 0.0
21/08:30pm 24.5 23.9 16.7 61 4.8 ESE 15 22 8 12 1019.6 1019.6 0.0
21/08:00pm 24.7 23.8 15.9 58 5.3 ESE 15 19 8 10 1019.5 1019.5 0.0
21/07:30pm 24.8 23.5 15.7 57 5.5 ESE 17 22 9 12 1019.2 1019.2 0.0
21/07:00pm 25.1 24.4 16.5 59 5.3 ESE 15 22 8 12 1018.8 1018.8 0.0
21/06:30pm 25.7 24.4 16.8 58 5.5 ESE 19 26 10 14 1018.5 1018.5 0.0
21/06:00pm 26.2 25.7 17.0 57 5.7 SE 15 22 8 12 1018.2 1018.2 0.0
21/05:30pm 26.5 25.2 17.3 57 5.8 SE 20 24 11 13 1017.9 1017.9 0.0
21/05:00pm 26.7 25.8 16.9 55 6.1 SE 17 24 9 13 1017.9 1017.9 0.0
21/04:30pm 26.8 25.3 16.4 53 6.4 SE 19 28 10 15 1017.8 1017.8 0.0
21/04:00pm 26.4 26.6 19.3 65 4.6 SSE 17 28 9 15 1017.8 1017.8 0.0
21/03:30pm 25.9 26.7 20.7 73 3.4 SSW 17 24 9 13 1017.7 1017.7 0.0
21/03:00pm 25.6 26.3 20.4 73 3.4 S 17 24 9 13 1017.7 1017.7 0.0
21/02:30pm 25.0 25.6 20.3 75 3.1 S 17 24 9 13 1017.9 1017.9 0.0
21/02:00pm 25.4 26.3 20.0 72 3.5 S 15 22 8 12 1018.0 1018.0 0.0
21/01:30pm 26.1 27.5 20.4 71 3.7 SSE 13 19 7 10 1018.2 1018.2 0.0
21/01:00pm 25.5 27.7 20.5 74 3.3 SSW 9 15 5 8 1018.4 1018.4 0.0
21/12:30pm 25.1 26.8 20.1 74 3.2 SSW 11 17 6 9 1018.6 1018.6 0.0
21/12:00pm 24.9 27.1 20.4 76 2.9 SW 9 15 5 8 1018.7 1018.7 0.0
21/11:30am 24.5 26.7 20.4 78 2.7 SW 9 15 5 8 1019.0 1019.0 0.0
21/11:00am 23.6 25.3 20.1 81 2.3 W 11 15 6 8 1019.2 1019.2 0.0
21/10:30am 23.0 24.5 20.5 86 1.6 WSW 13 17 7 9 1019.3 1019.3 0.0
21/10:00am 22.6 24.3 20.9 90 1.1 WSW 13 17 7 9 1019.0 1019.0 0.0
21/09:36am 22.3 24.2 20.6 90 1.1 SW 11 15 6 8 1018.7 1018.7 0.0
21/09:30am 22.0 23.8 20.3 90 1.1 SW 11 17 6 9 1018.7 1018.7 0.0
21/09:09am 22.0 23.9 20.6 92 0.9 SW 11 17 6 9 1018.6 1018.6 0.0
21/09:00am 22.3 24.5 21.1 93 0.8 SW 11 17 6 9 1018.5 1018.5 1.4
21/08:30am 22.3 26.8 21.5 95 0.5 CALM 0 0 0 0 1017.9 1017.9 1.4
21/08:00am 21.9 25.1 21.2 96 0.5 WNW 6 9 3 5 1017.5 1017.5 1.4
21/07:30am 21.6 23.2 20.8 95 0.5 WNW 13 17 7 9 1017.0 1017.0 1.4
21/07:00am 21.5 23.7 20.5 94 0.6 WSW 9 15 5 8 1016.7 1016.7 1.4
21/06:30am 21.8 23.3 20.6 93 0.8 W 13 15 7 8 1016.1 1016.1 1.4
21/06:00am 21.9 25.5 20.5 92 0.9 WSW 2 7 1 4 1015.7 1015.7 1.4
21/05:30am 21.9 24.6 20.7 93 0.8 SW 7 9 4 5 1015.3 1015.3 1.4
21/05:00am 22.1 26.2 20.7 92 0.9 CALM 0 0 0 0 1015.1 1015.1 1.4
21/04:30am 22.3 24.7 20.8 91 1.0 NNW 9 15 5 8 1014.7 1014.7 1.4
21/04:00am 22.3 24.7 20.9 92 0.9 NNW 9 15 5 8 1014.7 1014.7 1.2
21/03:30am 22.5 25.7 20.4 88 1.4 NNW 4 9 2 5 1014.8 1014.8 0.0
21/03:00am 22.6 25.4 20.9 90 1.1 NNW 7 9 4 5 1014.8 1014.8 0.0
21/02:30am 22.0 25.2 20.5 91 1.0 WNW 4 9 2 5 1015.0 1015.0 0.0
21/02:00am 21.7 25.2 20.3 92 0.9 NNW 2 7 1 4 1015.2 1015.2 0.0
21/01:30am 21.5 24.9 19.4 88 1.3 CALM 0 2 0 1 1015.3 1015.3 0.0
21/01:00am 22.5 26.2 19.9 85 1.7 CALM 0 0 0 0 1015.5 1015.5 0.0
21/12:30am 23.3 26.3 20.1 82 2.1 E 4 7 2 4 1015.6 1015.6 0.0
21/12:00am 23.5 26.9 20.2 82 2.1 NE 2 6 1 3 1015.7 1015.7 0.0
 
Date/Time
EDT
Temp
°C
App
Temp
°C
Dew
Point
°C
Rel
Hum
%
Delta-T
°C
Wind Press
QNH
hPa
Press
MSL
hPa
Rain since
9am
mm
Dir  Spd
km/h
Gust
km/h
Spd
kts
Gust
kts
20/11:30pm 24.0 26.6 20.5 81 2.3 E 7 9 4 5 1015.7 1015.7 0.0
20/11:00pm 23.7 26.8 20.2 81 2.3 ENE 4 9 2 5 1015.7 1015.7 0.0
20/10:30pm 23.2 26.7 19.6 80 2.3 CALM 0 0 0 0 1015.5 1015.5 0.0
20/10:00pm 23.8 26.0 19.5 77 2.8 E 7 11 4 6 1015.2 1015.2 0.0
20/09:30pm 23.7 25.3 19.2 76 2.9 E 9 13 5 7 1014.8 1014.8 0.0
20/09:00pm 24.1 25.4 19.2 74 3.1 E 11 15 6 8 1014.3 1014.3 0.0
20/08:30pm 24.4 25.3 19.2 73 3.3 E 13 20 7 11 1013.7 1013.7 0.0
20/08:00pm 24.6 25.0 19.0 71 3.6 E 15 20 8 11 1013.3 1013.3 0.0
20/07:30pm 24.9 25.0 19.1 70 3.7 ESE 17 24 9 13 1012.7 1012.7 0.0
20/07:00pm 25.7 24.6 18.6 65 4.5 ESE 22 32 12 17 1012.2 1012.2 0.0
20/06:30pm 26.5 25.4 18.6 62 5.0 ESE 22 30 12 16 1011.8 1011.8 0.0
20/06:00pm 26.9 25.4 18.5 60 5.4 SE 24 33 13 18 1011.4 1011.4 0.0
20/05:30pm 26.8 25.9 17.8 57 5.7 SE 19 28 10 15 1011.0 1011.0 0.0
20/05:00pm 27.5 26.2 18.2 57 5.9 SE 22 30 12 16 1011.0 1011.0 0.0
20/04:30pm 27.9 26.2 18.0 55 6.3 SSE 24 33 13 18 1010.7 1010.7 0.0
20/04:00pm 27.9 27.3 18.9 58 5.8 SSE 20 30 11 16 1010.6 1010.6 0.0
20/03:30pm 27.7 26.1 17.5 53 6.4 SSE 22 30 12 16 1010.6 1010.6 0.0
20/03:00pm 28.1 26.4 17.3 52 6.8 SSE 22 32 12 17 1010.7 1010.7 0.0
20/02:30pm 28.2 26.7 16.8 50 7.1 SSE 20 28 11 15 1010.9 1010.9 0.0
20/02:00pm 27.8 26.0 17.0 51 6.8 SSE 22 30 12 16 1011.2 1011.2 0.0
20/01:30pm 28.3 26.7 17.5 52 6.8 S 22 30 12 16 1011.4 1011.4 0.0
20/01:00pm 28.3 24.6 13.8 41 8.6 S 26 37 14 20 1011.7 1011.7 0.0
20/12:30pm 27.9 23.3 12.3 38 9.1 S 28 35 15 19 1012.0 1012.0 0.0
20/12:00pm 27.6 22.8 11.6 37 9.2 S 28 43 15 23 1012.1 1012.1 0.0
20/11:30am 28.1 23.6 12.5 38 9.1 S 28 39 15 21 1012.1 1012.1 0.0

Other Formats:

Comma delimited format used in spreadsheet applications
http://www.bom.gov.au/fwo/IDN60801/IDN60801.94596.axf

JavaScript Object Notation format (JSON) in row-major order
http://www.bom.gov.au/fwo/IDN60801/IDN60801.94596.json